sensor_id;sensor_type;location;lat;lon;timestamp;pressure;altitude;pressure_sealevel;temperature;humidity
11077;BME280;5591;42.626;23.380;2023-03-13T00:01:36;94410.75;;;3.55;72.75
11077;BME280;5591;42.626;23.380;2023-03-13T00:04:03;94336.66;;;3.16;70.84
11077;BME280;5591;42.626;23.380;2023-03-13T00:06:33;94421.41;;;3.52;71.23
11077;BME280;5591;42.626;23.380;2023-03-13T00:09:01;94410.91;;;3.53;71.91
11077;BME280;5591;42.626;23.380;2023-03-13T00:11:30;94412.00;;;3.51;71.58
11077;BME280;5591;42.626;23.380;2023-03-13T00:13:58;94413.91;;;3.49;72.58
11077;BME280;5591;42.626;23.380;2023-03-13T00:16:27;94409.44;;;3.41;73.71
11077;BME280;5591;42.626;23.380;2023-03-13T00:18:55;94422.41;;;3.41;73.96
11077;BME280;5591;42.626;23.380;2023-03-13T00:21:24;94422.41;;;3.32;74.16
11077;BME280;5591;42.626;23.380;2023-03-13T00:23:53;94422.66;;;3.38;74.00
11077;BME280;5591;42.626;23.380;2023-03-13T00:26:21;94414.25;;;3.27;75.38
11077;BME280;5591;42.626;23.380;2023-03-13T00:28:48;94425.84;;;3.32;74.59
11077;BME280;5591;42.626;23.380;2023-03-13T00:31:18;94427.34;;;3.25;75.55
11077;BME280;5591;42.626;23.380;2023-03-13T00:33:46;94427.91;;;3.10;77.73
11077;BME280;5591;42.626;23.380;2023-03-13T00:36:15;94432.44;;;3.08;79.92
11077;BME280;5591;42.626;23.380;2023-03-13T00:38:42;94425.34;;;3.00;79.87
11077;BME280;5591;42.626;23.380;2023-03-13T00:41:12;94435.88;;;2.89;81.75
11077;BME280;5591;42.626;23.380;2023-03-13T00:43:40;94427.53;;;2.95;79.91
11077;BME280;5591;42.626;23.380;2023-03-13T00:46:08;94429.84;;;3.08;78.75
11077;BME280;5591;42.626;23.380;2023-03-13T00:48:35;94430.38;;;3.02;78.70
11077;BME280;5591;42.626;23.380;2023-03-13T00:51:03;94431.75;;;2.96;81.56
11077;BME280;5591;42.626;23.380;2023-03-13T00:53:30;94426.03;;;3.02;79.37
11077;BME280;5591;42.626;23.380;2023-03-13T00:55:59;94420.03;;;2.73;81.53
11077;BME280;5591;42.626;23.380;2023-03-13T00:58:30;94428.66;;;2.74;82.65
11077;BME280;5591;42.626;23.380;2023-03-13T01:01:06;94416.47;;;3.03;79.62
11077;BME280;5591;42.626;23.380;2023-03-13T01:03:33;94428.09;;;2.70;79.65
11077;BME280;5591;42.626;23.380;2023-03-13T01:06:01;94425.50;;;2.89;80.52
11077;BME280;5591;42.626;23.380;2023-03-13T01:08:29;94429.31;;;2.85;81.11
11077;BME280;5591;42.626;23.380;2023-03-13T01:11:00;94439.13;;;2.72;81.68
11077;BME280;5591;42.626;23.380;2023-03-13T01:13:29;94430.66;;;3.08;78.34
11077;BME280;5591;42.626;23.380;2023-03-13T01:15:57;94430.50;;;3.10;76.44
11077;BME280;5591;42.626;23.380;2023-03-13T01:18:26;94432.44;;;3.08;77.13
11077;BME280;5591;42.626;23.380;2023-03-13T01:20:53;94416.06;;;2.98;80.60
11077;BME280;5591;42.626;23.380;2023-03-13T01:23:20;94425.50;;;2.89;84.25
11077;BME280;5591;42.626;23.380;2023-03-13T01:25:47;94423.59;;;2.72;88.68
11077;BME280;5591;42.626;23.380;2023-03-13T01:28:13;94428.63;;;2.64;90.22
11077;BME280;5591;42.626;23.380;2023-03-13T01:30:42;94424.00;;;2.58;90.34
11077;BME280;5591;42.626;23.380;2023-03-13T01:33:08;94433.13;;;2.43;90.76
11077;BME280;5591;42.626;23.380;2023-03-13T01:35:35;94437.91;;;2.38;92.39
11077;BME280;5591;42.626;23.380;2023-03-13T01:38:02;94444.16;;;2.27;92.46
11077;BME280;5591;42.626;23.380;2023-03-13T01:40:28;94447.81;;;2.24;91.35
11077;BME280;5591;42.626;23.380;2023-03-13T01:42:56;94449.28;;;2.08;91.14
11077;BME280;5591;42.626;23.380;2023-03-13T01:45:55;94447.25;;;2.21;90.29
11077;BME280;5591;42.626;23.380;2023-03-13T01:48:25;94443.59;;;2.14;89.01
11077;BME280;5591;42.626;23.380;2023-03-13T01:50:56;94451.97;;;2.06;91.75
11077;BME280;5591;42.626;23.380;2023-03-13T01:53:26;94447.09;;;2.13;92.69
11077;BME280;5591;42.626;23.380;2023-03-13T01:55:54;94460.84;;;2.04;95.04
11077;BME280;5591;42.626;23.380;2023-03-13T01:58:22;94445.44;;;1.93;95.53
11077;BME280;5591;42.626;23.380;2023-03-13T02:00:49;94435.75;;;1.95;94.92
11077;BME280;5591;42.626;23.380;2023-03-13T02:03:19;94450.50;;;2.04;96.02
11077;BME280;5591;42.626;23.380;2023-03-13T02:05:47;94452.53;;;2.00;96.29
11077;BME280;5591;42.626;23.380;2023-03-13T02:08:18;94459.47;;;2.00;97.74
11077;BME280;5591;42.626;23.380;2023-03-13T02:10:50;94431.22;;;1.78;99.40
11077;BME280;5591;42.626;23.380;2023-03-13T02:13:19;94444.72;;;1.91;99.09
11077;BME280;5591;42.626;23.380;2023-03-13T02:15:46;94456.47;;;2.04;97.82
11077;BME280;5591;42.626;23.380;2023-03-13T02:18:14;94456.88;;;2.00;97.94
11077;BME280;5591;42.626;23.380;2023-03-13T02:20:42;94461.38;;;1.98;98.64
11077;BME280;5591;42.626;23.380;2023-03-13T02:23:15;94466.63;;;1.87;97.87
11077;BME280;5591;42.626;23.380;2023-03-13T02:25:46;94463.66;;;1.91;98.88
11077;BME280;5591;42.626;23.380;2023-03-13T02:28:17;94464.16;;;1.85;99.94
11077;BME280;5591;42.626;23.380;2023-03-13T02:30:46;94498.91;;;1.83;100.00
11077;BME280;5591;42.626;23.380;2023-03-13T02:33:15;94470.44;;;1.83;100.00
11077;BME280;5591;42.626;23.380;2023-03-13T02:35:44;94474.06;;;1.71;100.00
11077;BME280;5591;42.626;23.380;2023-03-13T02:38:15;94501.00;;;1.48;100.00
11077;BME280;5591;42.626;23.380;2023-03-13T02:40:46;94478.38;;;1.61;100.00
11077;BME280;5591;42.626;23.380;2023-03-13T02:43:17;94487.63;;;1.63;100.00
11077;BME280;5591;42.626;23.380;2023-03-13T02:46:04;94492.00;;;1.63;100.00
11077;BME280;5591;42.626;23.380;2023-03-13T02:48:32;94508.19;;;1.65;100.00
11077;BME280;5591;42.626;23.380;2023-03-13T02:51:01;94512.41;;;1.66;100.00
11077;BME280;5591;42.626;23.380;2023-03-13T02:53:29;94502.59;;;1.60;100.00
11077;BME280;5591;42.626;23.380;2023-03-13T02:55:58;94516.00;;;1.74;100.00
11077;BME280;5591;42.626;23.380;2023-03-13T02:58:25;94510.09;;;1.63;100.00
11077;BME280;5591;42.626;23.380;2023-03-13T03:00:51;94519.31;;;1.86;100.00
11077;BME280;5591;42.626;23.380;2023-03-13T03:03:18;94513.50;;;1.93;99.27
11077;BME280;5591;42.626;23.380;2023-03-13T03:05:45;94510.78;;;1.95;98.91
11077;BME280;5591;42.626;23.380;2023-03-13T03:08:12;94498.38;;;1.89;97.92
11077;BME280;5591;42.626;23.380;2023-03-13T03:10:38;94503.03;;;1.95;96.83
11077;BME280;5591;42.626;23.380;2023-03-13T03:13:06;94496.63;;;1.89;98.73
11077;BME280;5591;42.626;23.380;2023-03-13T03:15:33;94518.66;;;1.93;99.62
11077;BME280;5591;42.626;23.380;2023-03-13T03:18:00;94510.06;;;1.83;100.00
11077;BME280;5591;42.626;23.380;2023-03-13T03:20:27;94510.22;;;1.91;100.00
11077;BME280;5591;42.626;23.380;2023-03-13T03:22:53;94525.56;;;1.83;100.00
11077;BME280;5591;42.626;23.380;2023-03-13T03:25:20;94522.25;;;1.72;100.00
11077;BME280;5591;42.626;23.380;2023-03-13T03:27:47;94535.44;;;1.69;100.00
11077;BME280;5591;42.626;23.380;2023-03-13T03:30:16;94542.25;;;1.49;100.00
11077;BME280;5591;42.626;23.380;2023-03-13T03:32:42;94533.94;;;1.46;100.00
11077;BME280;5591;42.626;23.380;2023-03-13T03:35:09;94551.34;;;1.44;100.00
11077;BME280;5591;42.626;23.380;2023-03-13T03:37:36;94546.03;;;1.25;100.00
11077;BME280;5591;42.626;23.380;2023-03-13T03:40:03;94542.97;;;1.31;100.00
11077;BME280;5591;42.626;23.380;2023-03-13T03:42:31;94552.31;;;1.11;100.00
11077;BME280;5591;42.626;23.380;2023-03-13T03:44:57;94554.63;;;1.25;100.00
11077;BME280;5591;42.626;23.380;2023-03-13T03:47:26;94561.91;;;1.20;100.00
11077;BME280;5591;42.626;23.380;2023-03-13T03:49:53;94563.56;;;1.21;100.00
11077;BME280;5591;42.626;23.380;2023-03-13T03:52:19;94576.63;;;1.20;100.00
11077;BME280;5591;42.626;23.380;2023-03-13T03:54:46;94580.94;;;1.19;100.00
11077;BME280;5591;42.626;23.380;2023-03-13T03:57:13;94580.59;;;1.24;100.00
11077;BME280;5591;42.626;23.380;2023-03-13T03:59:39;94586.44;;;1.26;100.00
11077;BME280;5591;42.626;23.380;2023-03-13T04:02:06;94585.44;;;1.17;100.00
11077;BME280;5591;42.626;23.380;2023-03-13T04:04:34;94590.75;;;1.05;100.00
11077;BME280;5591;42.626;23.380;2023-03-13T04:07:01;94589.44;;;1.10;100.00
11077;BME280;5591;42.626;23.380;2023-03-13T04:09:28;94601.16;;;1.25;100.00
11077;BME280;5591;42.626;23.380;2023-03-13T04:11:55;94609.88;;;1.13;100.00
11077;BME280;5591;42.626;23.380;2023-03-13T04:14:22;94598.97;;;1.10;100.00
11077;BME280;5591;42.626;23.380;2023-03-13T04:16:48;94600.34;;;1.14;100.00
11077;BME280;5591;42.626;23.380;2023-03-13T04:19:15;94607.84;;;1.17;100.00
11077;BME280;5591;42.626;23.380;2023-03-13T04:21:43;94615.78;;;1.04;100.00
11077;BME280;5591;42.626;23.380;2023-03-13T04:24:10;94536.06;;;0.57;100.00
11077;BME280;5591;42.626;23.380;2023-03-13T04:26:37;94611.41;;;1.05;100.00
11077;BME280;5591;42.626;23.380;2023-03-13T04:29:03;94620.38;;;1.01;100.00
11077;BME280;5591;42.626;23.380;2023-03-13T04:31:31;94618.31;;;1.15;100.00
11077;BME280;5591;42.626;23.380;2023-03-13T04:33:58;94605.81;;;1.00;100.00
11077;BME280;5591;42.626;23.380;2023-03-13T04:36:25;94619.13;;;1.16;100.00
11077;BME280;5591;42.626;23.380;2023-03-13T04:38:53;94628.53;;;1.17;100.00
11077;BME280;5591;42.626;23.380;2023-03-13T04:41:20;94634.59;;;1.27;100.00
11077;BME280;5591;42.626;23.380;2023-03-13T04:43:46;94636.28;;;1.17;100.00
11077;BME280;5591;42.626;23.380;2023-03-13T04:46:13;94646.84;;;1.14;100.00
11077;BME280;5591;42.626;23.380;2023-03-13T04:48:40;94656.91;;;0.96;100.00
11077;BME280;5591;42.626;23.380;2023-03-13T04:51:07;94647.88;;;1.33;100.00
11077;BME280;5591;42.626;23.380;2023-03-13T04:53:33;94656.72;;;1.51;100.00
11077;BME280;5591;42.626;23.380;2023-03-13T04:56:02;94658.59;;;1.49;100.00
11077;BME280;5591;42.626;23.380;2023-03-13T04:58:29;94664.41;;;1.62;100.00
11077;BME280;5591;42.626;23.380;2023-03-13T05:00:55;94691.53;;;1.47;100.00
11077;BME280;5591;42.626;23.380;2023-03-13T05:03:22;94649.03;;;1.61;100.00
11077;BME280;5591;42.626;23.380;2023-03-13T05:05:49;94662.44;;;2.07;100.00
11077;BME280;5591;42.626;23.380;2023-03-13T05:08:16;94660.78;;;2.06;100.00
11077;BME280;5591;42.626;23.380;2023-03-13T05:10:43;94661.97;;;2.22;100.00
11077;BME280;5591;42.626;23.380;2023-03-13T05:13:11;94667.03;;;2.24;100.00
11077;BME280;5591;42.626;23.380;2023-03-13T05:15:37;94661.03;;;2.23;100.00
11077;BME280;5591;42.626;23.380;2023-03-13T05:18:04;94667.59;;;2.07;100.00
11077;BME280;5591;42.626;23.380;2023-03-13T05:20:31;94661.75;;;2.05;100.00
11077;BME280;5591;42.626;23.380;2023-03-13T05:22:58;94670.06;;;2.08;100.00
11077;BME280;5591;42.626;23.380;2023-03-13T05:25:24;94685.78;;;1.96;100.00
11077;BME280;5591;42.626;23.380;2023-03-13T05:27:51;94683.94;;;2.28;100.00
11077;BME280;5591;42.626;23.380;2023-03-13T05:30:19;94689.53;;;2.33;100.00
11077;BME280;5591;42.626;23.380;2023-03-13T05:32:46;94690.03;;;2.47;100.00
11077;BME280;5591;42.626;23.380;2023-03-13T05:35:13;94692.72;;;2.66;100.00
11077;BME280;5591;42.626;23.380;2023-03-13T05:37:40;94728.94;;;2.56;100.00
11077;BME280;5591;42.626;23.380;2023-03-13T05:40:08;94699.84;;;2.73;99.44
11077;BME280;5591;42.626;23.380;2023-03-13T05:42:35;94695.41;;;2.94;96.42
11077;BME280;5591;42.626;23.380;2023-03-13T05:45:01;94676.22;;;3.06;95.89
11077;BME280;5591;42.626;23.380;2023-03-13T05:47:30;94698.94;;;3.33;97.22
11077;BME280;5591;42.626;23.380;2023-03-13T05:49:56;94657.28;;;3.15;95.90
11077;BME280;5591;42.626;23.380;2023-03-13T05:52:23;94702.13;;;3.55;93.81
11077;BME280;5591;42.626;23.380;2023-03-13T05:54:50;94697.47;;;3.59;91.49
11077;BME280;5591;42.626;23.380;2023-03-13T05:57:19;94700.63;;;3.72;89.09
11077;BME280;5591;42.626;23.380;2023-03-13T05:59:46;94697.22;;;3.81;86.63
11077;BME280;5591;42.626;23.380;2023-03-13T06:02:13;94698.44;;;3.96;85.43
11077;BME280;5591;42.626;23.380;2023-03-13T06:04:41;94679.59;;;3.84;83.93
11077;BME280;5591;42.626;23.380;2023-03-13T06:07:08;94704.44;;;4.06;82.54
11077;BME280;5591;42.626;23.380;2023-03-13T06:09:34;94713.03;;;4.25;81.28
11077;BME280;5591;42.626;23.380;2023-03-13T06:12:01;94714.78;;;4.34;79.55
11077;BME280;5591;42.626;23.380;2023-03-13T06:14:28;94712.84;;;4.55;77.31
11077;BME280;5591;42.626;23.380;2023-03-13T06:16:55;94716.66;;;4.61;76.43
11077;BME280;5591;42.626;23.380;2023-03-13T06:19:21;94715.03;;;4.60;77.67
11077;BME280;5591;42.626;23.380;2023-03-13T06:21:50;94711.69;;;4.77;75.30
11077;BME280;5591;42.626;23.380;2023-03-13T06:24:17;94720.13;;;4.97;74.95
11077;BME280;5591;42.626;23.380;2023-03-13T06:26:44;94714.06;;;4.70;71.95
11077;BME280;5591;42.626;23.380;2023-03-13T06:29:10;94719.25;;;4.61;71.39
11077;BME280;5591;42.626;23.380;2023-03-13T06:31:37;94718.03;;;4.55;70.87
11077;BME280;5591;42.626;23.380;2023-03-13T06:34:04;94720.75;;;4.63;70.08
11077;BME280;5591;42.626;23.380;2023-03-13T06:36:31;94730.78;;;4.94;69.54
11077;BME280;5591;42.626;23.380;2023-03-13T06:38:59;94724.72;;;4.67;72.77
11077;BME280;5591;42.626;23.380;2023-03-13T06:41:26;94705.03;;;4.55;72.33
11077;BME280;5591;42.626;23.380;2023-03-13T06:43:53;94704.03;;;5.11;70.57
11077;BME280;5591;42.626;23.380;2023-03-13T06:46:21;94690.28;;;5.28;68.98
11077;BME280;5591;42.626;23.380;2023-03-13T06:48:48;94694.84;;;5.17;65.96
11077;BME280;5591;42.626;23.380;2023-03-13T06:51:18;94684.66;;;5.50;64.84
11077;BME280;5591;42.626;23.380;2023-03-13T06:53:45;94680.03;;;5.89;64.18
11077;BME280;5591;42.626;23.380;2023-03-13T06:56:13;94691.19;;;5.99;63.23
11077;BME280;5591;42.626;23.380;2023-03-13T06:58:40;94693.84;;;5.89;63.28
11077;BME280;5591;42.626;23.380;2023-03-13T07:01:09;94702.47;;;5.72;63.30
11077;BME280;5591;42.626;23.380;2023-03-13T07:03:37;94694.56;;;6.17;62.04
11077;BME280;5591;42.626;23.380;2023-03-13T07:06:05;94689.25;;;6.01;61.83
11077;BME280;5591;42.626;23.380;2023-03-13T07:08:33;94687.28;;;5.68;62.43
11077;BME280;5591;42.626;23.380;2023-03-13T07:11:02;94702.56;;;5.80;61.91
11077;BME280;5591;42.626;23.380;2023-03-13T07:13:30;94686.84;;;5.72;63.20
11077;BME280;5591;42.626;23.380;2023-03-13T07:15:59;94685.88;;;5.73;64.46
11077;BME280;5591;42.626;23.380;2023-03-13T07:18:26;94684.41;;;6.23;62.46
11077;BME280;5591;42.626;23.380;2023-03-13T07:20:53;94679.88;;;6.33;61.13
11077;BME280;5591;42.626;23.380;2023-03-13T07:23:20;94691.69;;;6.20;61.60
11077;BME280;5591;42.626;23.380;2023-03-13T07:25:52;94686.81;;;6.42;60.78
11077;BME280;5591;42.626;23.380;2023-03-13T07:28:20;94677.63;;;6.81;59.82
11077;BME280;5591;42.626;23.380;2023-03-13T07:30:48;94682.88;;;6.89;58.83
11077;BME280;5591;42.626;23.380;2023-03-13T07:33:15;94690.56;;;6.40;60.34
11077;BME280;5591;42.626;23.380;2023-03-13T07:35:49;94681.59;;;6.68;60.37
11077;BME280;5591;42.626;23.380;2023-03-13T07:38:16;94681.38;;;6.87;60.38
11077;BME280;5591;42.626;23.380;2023-03-13T07:40:47;94681.06;;;6.82;59.50
11077;BME280;5591;42.626;23.380;2023-03-13T07:43:14;94678.25;;;6.32;59.72
11077;BME280;5591;42.626;23.380;2023-03-13T07:45:51;94686.25;;;5.34;63.09
11077;BME280;5591;42.626;23.380;2023-03-13T07:48:18;94686.69;;;5.02;66.77
11077;BME280;5591;42.626;23.380;2023-03-13T07:50:45;94685.91;;;5.46;67.90
11077;BME280;5591;42.626;23.380;2023-03-13T07:53:12;94673.59;;;5.66;68.73
11077;BME280;5591;42.626;23.380;2023-03-13T07:55:51;94695.84;;;6.30;65.99
11077;BME280;5591;42.626;23.380;2023-03-13T07:58:18;94681.06;;;6.90;63.56
11077;BME280;5591;42.626;23.380;2023-03-13T08:00:45;94678.59;;;7.14;62.74
11077;BME280;5591;42.626;23.380;2023-03-13T08:03:13;94670.88;;;7.37;61.74
11077;BME280;5591;42.626;23.380;2023-03-13T08:05:40;94680.75;;;6.59;63.58
11077;BME280;5591;42.626;23.380;2023-03-13T08:08:07;94674.47;;;7.03;63.31
11077;BME280;5591;42.626;23.380;2023-03-13T08:10:34;94668.94;;;7.47;62.39
11077;BME280;5591;42.626;23.380;2023-03-13T08:13:01;94668.97;;;7.63;61.77
11077;BME280;5591;42.626;23.380;2023-03-13T08:15:27;94668.94;;;7.55;59.72
11077;BME280;5591;42.626;23.380;2023-03-13T08:17:54;94667.19;;;7.64;60.80
11077;BME280;5591;42.626;23.380;2023-03-13T08:20:22;94649.88;;;7.71;60.37
11077;BME280;5591;42.626;23.380;2023-03-13T08:22:49;94656.81;;;8.20;58.64
11077;BME280;5591;42.626;23.380;2023-03-13T08:25:16;94653.56;;;8.42;58.18
11077;BME280;5591;42.626;23.380;2023-03-13T08:27:43;94665.78;;;8.09;57.80
11077;BME280;5591;42.626;23.380;2023-03-13T08:30:11;94660.22;;;8.12;58.85
11077;BME280;5591;42.626;23.380;2023-03-13T08:32:38;94669.63;;;7.65;58.97
11077;BME280;5591;42.626;23.380;2023-03-13T08:35:05;94657.28;;;8.15;58.32
11077;BME280;5591;42.626;23.380;2023-03-13T08:37:33;94668.09;;;8.28;58.22
11077;BME280;5591;42.626;23.380;2023-03-13T08:40:00;94666.81;;;8.32;58.58
11077;BME280;5591;42.626;23.380;2023-03-13T08:42:35;94674.94;;;8.69;57.04
11077;BME280;5591;42.626;23.380;2023-03-13T08:45:02;94673.16;;;8.70;57.01
11077;BME280;5591;42.626;23.380;2023-03-13T08:47:29;94672.38;;;9.08;55.84
11077;BME280;5591;42.626;23.380;2023-03-13T08:49:56;94615.81;;;8.99;54.91
11077;BME280;5591;42.626;23.380;2023-03-13T08:52:23;94670.94;;;9.05;55.28
11077;BME280;5591;42.626;23.380;2023-03-13T08:54:51;94670.16;;;9.35;54.98
11077;BME280;5591;42.626;23.380;2023-03-13T08:57:18;94654.34;;;9.59;54.55
11077;BME280;5591;42.626;23.380;2023-03-13T08:59:44;94661.41;;;9.12;54.72
11077;BME280;5591;42.626;23.380;2023-03-13T09:02:11;94654.88;;;9.55;54.86
11077;BME280;5591;42.626;23.380;2023-03-13T09:04:44;94671.84;;;8.42;55.76
11077;BME280;5591;42.626;23.380;2023-03-13T09:07:11;94660.22;;;8.60;54.92
11077;BME280;5591;42.626;23.380;2023-03-13T09:09:38;94585.56;;;8.50;55.34
11077;BME280;5591;42.626;23.380;2023-03-13T09:12:07;94654.19;;;9.14;54.75
11077;BME280;5591;42.626;23.380;2023-03-13T09:14:34;94659.50;;;9.06;54.28
11077;BME280;5591;42.626;23.380;2023-03-13T09:17:01;94654.41;;;9.05;53.49
11077;BME280;5591;42.626;23.380;2023-03-13T09:19:28;94658.75;;;8.10;55.83
11077;BME280;5591;42.626;23.380;2023-03-13T09:21:55;94647.94;;;7.65;56.65
11077;BME280;5591;42.626;23.380;2023-03-13T09:24:22;94647.31;;;8.03;56.70
11077;BME280;5591;42.626;23.380;2023-03-13T09:26:49;94649.94;;;8.11;56.73
11077;BME280;5591;42.626;23.380;2023-03-13T09:29:17;94646.31;;;8.76;55.30
11077;BME280;5591;42.626;23.380;2023-03-13T09:31:44;94637.72;;;9.06;53.84
11077;BME280;5591;42.626;23.380;2023-03-13T09:34:11;94644.16;;;9.34;53.47
11077;BME280;5591;42.626;23.380;2023-03-13T09:36:38;94653.56;;;8.58;54.37
11077;BME280;5591;42.626;23.380;2023-03-13T09:39:05;94647.81;;;9.17;53.38
11077;BME280;5591;42.626;23.380;2023-03-13T09:41:35;94657.94;;;8.49;54.13
11077;BME280;5591;42.626;23.380;2023-03-13T09:44:09;94659.59;;;8.58;55.32
11077;BME280;5591;42.626;23.380;2023-03-13T09:46:43;94646.66;;;9.58;53.85
11077;BME280;5591;42.626;23.380;2023-03-13T09:49:30;94644.16;;;10.17;51.83
11077;BME280;5591;42.626;23.380;2023-03-13T09:52:04;94646.59;;;10.41;50.95
11077;BME280;5591;42.626;23.380;2023-03-13T09:54:37;94642.06;;;10.72;50.55
11077;BME280;5591;42.626;23.380;2023-03-13T09:57:09;94645.13;;;10.24;50.60
11077;BME280;5591;42.626;23.380;2023-03-13T09:59:44;94649.91;;;9.90;51.50
11077;BME280;5591;42.626;23.380;2023-03-13T10:02:22;94636.31;;;10.39;50.13
11077;BME280;5591;42.626;23.380;2023-03-13T10:04:53;94678.84;;;10.86;49.66
11077;BME280;5591;42.626;23.380;2023-03-13T10:07:22;94616.09;;;10.77;49.81
11077;BME280;5591;42.626;23.380;2023-03-13T10:09:49;94630.75;;;11.00;48.99
11077;BME280;5591;42.626;23.380;2023-03-13T10:12:19;94636.72;;;11.38;49.12
11077;BME280;5591;42.626;23.380;2023-03-13T10:14:52;94621.25;;;11.93;48.36
11077;BME280;5591;42.626;23.380;2023-03-13T10:17:30;94616.63;;;12.37;47.53
11077;BME280;5591;42.626;23.380;2023-03-13T10:20:00;94621.63;;;11.25;48.34
11077;BME280;5591;42.626;23.380;2023-03-13T10:22:32;94606.69;;;11.76;47.78
11077;BME280;5591;42.626;23.380;2023-03-13T10:25:02;94600.06;;;12.01;47.85
11077;BME280;5591;42.626;23.380;2023-03-13T10:27:42;94600.56;;;12.32;47.26
11077;BME280;5591;42.626;23.380;2023-03-13T10:30:19;94590.88;;;11.90;46.24
11077;BME280;5591;42.626;23.380;2023-03-13T10:32:48;94586.06;;;12.15;46.90
11077;BME280;5591;42.626;23.380;2023-03-13T10:35:21;94584.84;;;11.96;46.98
11077;BME280;5591;42.626;23.380;2023-03-13T10:37:48;94580.13;;;12.13;46.46
11077;BME280;5591;42.626;23.380;2023-03-13T10:40:20;94583.19;;;11.74;47.48
11077;BME280;5591;42.626;23.380;2023-03-13T10:42:50;94576.34;;;11.94;47.24
11077;BME280;5591;42.626;23.380;2023-03-13T10:45:19;94467.50;;;11.53;47.11
11077;BME280;5591;42.626;23.380;2023-03-13T10:47:54;94490.78;;;12.19;45.33
11077;BME280;5591;42.626;23.380;2023-03-13T10:50:24;94559.50;;;13.26;44.70
11077;BME280;5591;42.626;23.380;2023-03-13T10:52:51;94551.06;;;13.03;44.49
11077;BME280;5591;42.626;23.380;2023-03-13T10:55:21;94555.56;;;13.09;45.74
11077;BME280;5591;42.626;23.380;2023-03-13T10:57:56;94554.41;;;13.24;44.98
11077;BME280;5591;42.626;23.380;2023-03-13T11:00:29;94553.09;;;13.41;44.88
11077;BME280;5591;42.626;23.380;2023-03-13T11:02:57;94551.72;;;13.58;43.50
11077;BME280;5591;42.626;23.380;2023-03-13T11:05:36;94547.31;;;13.98;43.72
11077;BME280;5591;42.626;23.380;2023-03-13T11:08:21;94540.06;;;14.06;42.42
11077;BME280;5591;42.626;23.380;2023-03-13T11:10:56;94528.94;;;14.17;42.44
11077;BME280;5591;42.626;23.380;2023-03-13T11:13:34;94533.53;;;14.15;43.29
11077;BME280;5591;42.626;23.380;2023-03-13T11:16:09;94519.59;;;14.54;42.73
11077;BME280;5591;42.626;23.380;2023-03-13T11:18:41;94521.28;;;15.05;41.75
11077;BME280;5591;42.626;23.380;2023-03-13T11:21:16;94516.94;;;14.41;41.99
11077;BME280;5591;42.626;23.380;2023-03-13T11:23:49;94513.25;;;14.61;41.78
11077;BME280;5591;42.626;23.380;2023-03-13T11:26:22;94516.81;;;14.99;42.14
11077;BME280;5591;42.626;23.380;2023-03-13T11:28:56;94508.88;;;15.12;41.30
11077;BME280;5591;42.626;23.380;2023-03-13T11:31:28;94509.59;;;14.36;42.47
11077;BME280;5591;42.626;23.380;2023-03-13T11:34:04;94506.84;;;15.14;41.27
11077;BME280;5591;42.626;23.380;2023-03-13T11:36:33;94505.41;;;15.11;41.68
11077;BME280;5591;42.626;23.380;2023-03-13T11:39:07;94499.06;;;15.69;40.59
11077;BME280;5591;42.626;23.380;2023-03-13T11:41:48;94494.78;;;16.79;39.12
11077;BME280;5591;42.626;23.380;2023-03-13T11:44:27;94483.34;;;17.68;37.74
11077;BME280;5591;42.626;23.380;2023-03-13T11:47:12;94477.44;;;17.66;36.37
11077;BME280;5591;42.626;23.380;2023-03-13T11:49:58;94479.50;;;14.76;39.11
11077;BME280;5591;42.626;23.380;2023-03-13T15:16:02;94355.28;;;23.83;27.21
11077;BME280;5591;42.626;23.380;2023-03-13T15:18:37;94324.16;;;22.86;27.29
11077;BME280;5591;42.626;23.380;2023-03-13T15:21:20;94361.69;;;23.62;27.12
11077;BME280;5591;42.626;23.380;2023-03-13T15:23:50;94366.63;;;24.40;26.94
11077;BME280;5591;42.626;23.380;2023-03-13T15:26:17;94355.91;;;24.55;26.66
11077;BME280;5591;42.626;23.380;2023-03-13T15:28:44;94362.00;;;25.69;25.93
11077;BME280;5591;42.626;23.380;2023-03-13T15:31:12;94361.91;;;25.89;25.44
11077;BME280;5591;42.626;23.380;2023-03-13T15:33:42;94372.06;;;25.39;25.59
11077;BME280;5591;42.626;23.380;2023-03-13T15:36:09;94371.97;;;24.80;26.16
11077;BME280;5591;42.626;23.380;2023-03-13T15:38:37;94366.63;;;24.55;26.47
11077;BME280;5591;42.626;23.380;2023-03-13T15:41:04;94380.94;;;25.44;26.03
11077;BME280;5591;42.626;23.380;2023-03-13T15:43:33;94381.78;;;23.65;27.00
11077;BME280;5591;42.626;23.380;2023-03-13T15:46:00;94384.50;;;21.99;28.64
11077;BME280;5591;42.626;23.380;2023-03-13T15:48:29;94390.78;;;20.76;30.14
11077;BME280;5591;42.626;23.380;2023-03-13T15:50:58;94391.19;;;19.86;31.12
11077;BME280;5591;42.626;23.380;2023-03-13T15:53:27;94401.97;;;18.49;32.91
11077;BME280;5591;42.626;23.380;2023-03-13T15:55:56;94399.03;;;18.05;34.48
11077;BME280;5591;42.626;23.380;2023-03-13T15:58:23;94346.34;;;16.61;34.95
11077;BME280;5591;42.626;23.380;2023-03-13T16:00:51;94393.69;;;17.23;35.67
11077;BME280;5591;42.626;23.380;2023-03-13T16:03:19;94399.56;;;16.42;36.93
11077;BME280;5591;42.626;23.380;2023-03-13T16:05:48;94402.34;;;15.05;39.46
11077;BME280;5591;42.626;23.380;2023-03-13T16:08:16;94409.25;;;14.56;40.59
11077;BME280;5591;42.626;23.380;2023-03-13T16:10:44;94414.75;;;14.15;41.77
11077;BME280;5591;42.626;23.380;2023-03-13T16:13:11;94408.88;;;14.26;41.03
11077;BME280;5591;42.626;23.380;2023-03-13T16:15:38;94398.31;;;14.13;41.62
11077;BME280;5591;42.626;23.380;2023-03-13T16:18:05;94400.16;;;13.93;42.51
11077;BME280;5591;42.626;23.380;2023-03-13T16:20:33;94401.63;;;13.63;43.15
11077;BME280;5591;42.626;23.380;2023-03-13T16:23:01;94399.78;;;13.57;42.97
11077;BME280;5591;42.626;23.380;2023-03-13T16:25:29;94398.50;;;13.21;43.85
11077;BME280;5591;42.626;23.380;2023-03-13T16:27:56;94397.38;;;12.89;44.48
11077;BME280;5591;42.626;23.380;2023-03-13T16:30:25;94397.75;;;12.80;45.22
11077;BME280;5591;42.626;23.380;2023-03-13T16:32:52;94381.44;;;12.50;45.34
11077;BME280;5591;42.626;23.380;2023-03-13T16:35:19;94388.41;;;12.31;46.72
11077;BME280;5591;42.626;23.380;2023-03-13T16:37:46;94399.97;;;12.02;47.51